Time;durP1;ratioP1;P1;durP2;ratioP2;P2;SDS_P1;SDS_P2;PMS_P1;PMS_P2;Temp;Humidity;BMP_temperature;BMP_pressure;BME280_temperature;BME280_humidity;BME280_pressure;Samples;Min_cycle;Max_cycle;Signal;HPM_P1;HPM_P2
2021/05/07 00:00:15;;;;;;;10.07;5.65;;;;;;;4.96;84.38;98515.31;5015094;28;20026;-64
2021/05/07 00:02:40;;;;;;;7.90;5.80;;;;;;;4.97;84.47;98514.28;5015463;28;20029;-64
2021/05/07 00:05:06;;;;;;;7.60;5.10;;;;;;;4.96;84.30;98515.31;5015300;28;20452;-64
2021/05/07 00:07:31;;;;;;;7.85;5.15;;;;;;;4.95;84.27;98519.00;5030488;28;20381;-64
2021/05/07 00:09:57;;;;;;;7.97;5.10;;;;;;;5.01;83.74;98521.81;5015395;28;20030;-64
2021/05/07 00:12:22;;;;;;;7.82;5.03;;;;;;;5.04;83.74;98521.34;5014907;28;20041;-64
2021/05/07 00:14:48;;;;;;;6.78;5.38;;;;;;;5.04;83.79;98524.00;5015353;28;20453;-64
2021/05/07 00:17:13;;;;;;;7.45;5.10;;;;;;;5.06;84.30;98527.25;5014736;28;20531;-64
2021/05/07 00:19:39;;;;;;;7.25;5.18;;;;;;;5.07;84.38;98528.91;5014315;28;20033;-64
2021/05/07 00:22:04;;;;;;;7.70;5.22;;;;;;;5.08;83.58;98536.63;5014631;28;20045;-64
2021/05/07 00:24:29;;;;;;;7.15;5.43;;;;;;;5.05;84.19;98536.28;5015287;28;20034;-64
2021/05/07 00:26:56;;;;;;;6.97;5.45;;;;;;;5.00;83.63;98536.13;5014729;28;20504;-64
2021/05/07 00:29:21;;;;;;;7.38;5.47;;;;;;;5.09;83.52;98542.75;5015099;28;20108;-64
2021/05/07 00:31:47;;;;;;;8.18;6.18;;;;;;;4.99;85.26;98548.56;5014493;28;20112;-63
2021/05/07 00:34:12;;;;;;;11.68;9.23;;;;;;;4.88;85.10;98547.47;5014984;28;20547;-64
2021/05/07 00:36:38;;;;;;;14.27;11.50;;;;;;;4.88;84.73;98552.78;5014408;28;20038;-64
2021/05/07 00:39:03;;;;;;;15.80;11.85;;;;;;;4.80;85.33;98554.94;5014935;28;20030;-64
2021/05/07 00:41:29;;;;;;;17.63;14.82;;;;;;;4.69;85.32;98559.97;5014542;28;20092;-64
2021/05/07 00:43:56;;;;;;;19.38;16.35;;;;;;;4.66;85.15;98556.91;5013553;28;20451;-64
2021/05/07 00:46:21;;;;;;;18.88;16.15;;;;;;;4.59;85.78;98556.19;5014339;28;20168;-64
2021/05/07 00:48:47;;;;;;;18.95;16.00;;;;;;;4.53;85.54;98565.84;5014531;28;20025;-64
2021/05/07 00:51:13;;;;;;;21.25;17.05;;;;;;;4.50;85.69;98561.78;5013334;28;20050;-64
2021/05/07 00:53:38;;;;;;;20.40;17.08;;;;;;;4.45;85.89;98555.50;5013492;28;20026;-64
2021/05/07 00:56:04;;;;;;;20.85;17.55;;;;;;;4.36;85.06;98565.56;5014201;28;20062;-66
2021/05/07 00:58:29;;;;;;;23.60;16.33;;;;;;;4.34;84.92;98564.97;5014611;28;20057;-64
2021/05/07 01:00:55;;;;;;;20.13;17.38;;;;;;;4.39;84.61;98565.13;4996603;28;20065;-64
2021/05/07 01:03:20;;;;;;;20.08;16.80;;;;;;;4.40;84.96;98566.78;4996817;28;20061;-63
2021/05/07 01:05:46;;;;;;;20.35;16.58;;;;;;;4.36;84.48;98562.13;5012828;28;20100;-64
2021/05/07 01:08:12;;;;;;;20.38;15.25;;;;;;;4.32;83.81;98565.22;5014054;28;20137;-63
2021/05/07 01:10:37;;;;;;;18.98;15.50;;;;;;;4.27;84.37;98564.25;5012828;28;20057;-63
2021/05/07 01:13:02;;;;;;;16.85;13.88;;;;;;;4.23;83.68;98560.41;5014395;28;20465;-64
2021/05/07 01:15:28;;;;;;;18.52;14.60;;;;;;;4.17;84.82;98567.41;5013624;28;20088;-63
2021/05/07 01:17:55;;;;;;;18.77;15.98;;;;;;;4.18;85.43;98562.91;5014512;28;20029;-64
2021/05/07 01:20:22;;;;;;;18.50;14.98;;;;;;;4.16;84.34;98568.41;5013494;28;20384;-63
2021/05/07 01:22:49;;;;;;;16.70;14.30;;;;;;;4.14;83.94;98572.31;4996379;28;20123;-64
2021/05/07 01:25:16;;;;;;;19.00;15.10;;;;;;;4.10;83.31;98572.75;4995842;28;20033;-63
2021/05/07 01:27:42;;;;;;;17.70;14.48;;;;;;;4.11;83.92;98574.34;5013769;28;20037;-64
2021/05/07 01:30:19;;;;;;;17.15;14.30;;;;;;;4.08;83.05;98580.09;5013037;28;20034;-64
2021/05/07 01:32:45;;;;;;;19.77;14.02;;;;;;;4.03;82.99;98585.25;5014003;28;20030;-63
2021/05/07 01:35:13;;;;;;;16.77;14.50;;;;;;;3.98;83.01;98585.06;5012060;28;20468;-63
2021/05/07 01:37:39;;;;;;;17.73;14.93;;;;;;;3.90;84.07;98588.00;5013704;28;20072;-63
2021/05/07 01:40:20;;;;;;;19.42;14.55;;;;;;;3.74;84.13;98594.59;5012061;28;20447;-63
2021/05/07 01:42:46;;;;;;;17.75;13.98;;;;;;;3.60;84.77;98582.47;5013924;28;20033;-63
2021/05/07 01:45:12;;;;;;;18.88;14.60;;;;;;;3.51;84.98;98589.84;5013235;28;20034;-63
2021/05/07 01:47:38;;;;;;;19.05;14.55;;;;;;;3.44;85.34;98599.66;5013714;28;20029;-64
2021/05/07 01:50:05;;;;;;;18.90;13.68;;;;;;;3.35;85.00;98595.66;5013251;28;20029;-63
2021/05/07 01:52:30;;;;;;;17.95;14.25;;;;;;;3.26;85.05;98604.84;5012462;28;20112;-63
2021/05/07 01:54:56;;;;;;;17.83;13.45;;;;;;;3.12;85.75;98604.91;5013508;28;20022;-64
2021/05/07 01:57:27;;;;;;;16.60;13.70;;;;;;;3.08;85.28;98600.25;5013015;28;20038;-64
2021/05/07 01:59:52;;;;;;;17.92;14.25;;;;;;;3.03;85.22;98601.69;5013597;28;20468;-64
2021/05/07 02:02:18;;;;;;;20.52;15.05;;;;;;;2.96;86.04;98603.53;5012762;28;20040;-64
2021/05/07 02:04:43;;;;;;;18.13;14.88;;;;;;;2.92;85.08;98607.63;5013466;28;20034;-64
2021/05/07 02:07:09;;;;;;;17.40;13.05;;;;;;;2.86;85.40;98605.00;5012923;28;20037;-64
2021/05/07 02:09:34;;;;;;;16.05;13.07;;;;;;;2.76;85.75;98616.00;4992295;28;20046;-64
2021/05/07 02:12:00;;;;;;;16.55;13.73;;;;;;;2.71;86.63;98619.25;4993384;28;20034;-64
2021/05/07 02:14:25;;;;;;;16.60;13.50;;;;;;;2.71;86.38;98621.09;4993663;28;20027;-64
2021/05/07 02:16:51;;;;;;;17.83;12.60;;;;;;;2.68;85.65;98616.22;4993285;28;20034;-64
2021/05/07 02:19:16;;;;;;;18.02;13.13;;;;;;;2.67;86.11;98620.72;4993765;28;20039;-64
2021/05/07 02:21:41;;;;;;;15.82;12.52;;;;;;;2.52;86.67;98620.94;4993204;28;20421;-64
2021/05/07 02:24:09;;;;;;;16.38;11.50;;;;;;;2.48;85.44;98624.19;4993379;28;20031;-64
2021/05/07 02:26:34;;;;;;;14.82;10.30;;;;;;;2.53;84.80;98619.09;4991916;28;20062;-64
2021/05/07 02:28:59;;;;;;;15.75;11.02;;;;;;;2.38;85.09;98633.34;4993491;28;20029;-63
2021/05/07 02:31:25;;;;;;;15.52;11.25;;;;;;;2.32;84.74;98634.19;4993286;28;20049;-63
2021/05/07 02:33:51;;;;;;;14.68;11.25;;;;;;;2.28;84.06;98635.59;4993604;28;20485;-63
2021/05/07 02:36:16;;;;;;;16.83;11.65;;;;;;;2.34;83.59;98637.41;4993143;28;20038;-64
2021/05/07 02:38:42;;;;;;;15.02;11.10;;;;;;;2.37;83.67;98642.31;4975992;28;20461;-63
2021/05/07 02:41:07;;;;;;;16.88;11.85;;;;;;;2.36;83.81;98645.94;4992887;28;20047;-64
2021/05/07 02:43:33;;;;;;;18.02;11.48;;;;;;;2.33;83.63;98646.38;4997314;28;20449;-63
2021/05/07 02:45:58;;;;;;;18.40;11.43;;;;;;;2.35;84.56;98644.34;4997080;28;20092;-63
2021/05/07 02:48:24;;;;;;;16.75;11.38;;;;;;;2.43;84.35;98645.16;4997449;28;20070;-64
2021/05/07 02:50:49;;;;;;;14.93;10.07;;;;;;;2.37;83.25;98642.31;4996916;28;20031;-63
2021/05/07 02:53:16;;;;;;;14.05;9.82;;;;;;;2.44;83.86;98641.47;4997197;28;20026;-63
2021/05/07 02:55:41;;;;;;;17.00;11.05;;;;;;;2.40;84.10;98656.13;4997008;28;20030;-63
2021/05/07 02:58:06;;;;;;;14.52;10.45;;;;;;;2.45;83.85;98649.22;4997451;28;20033;-64
2021/05/07 03:00:32;;;;;;;15.80;10.13;;;;;;;2.47;83.90;98652.47;4996884;28;20124;-63
2021/05/07 03:02:57;;;;;;;15.27;10.57;;;;;;;2.44;83.49;98658.16;4997217;28;20073;-63
2021/05/07 03:05:23;;;;;;;16.80;10.63;;;;;;;2.36;83.99;98663.66;4996830;28;20034;-64
2021/05/07 03:07:49;;;;;;;17.50;11.73;;;;;;;2.28;84.25;98662.03;5000247;28;20504;-63
2021/05/07 03:10:14;;;;;;;16.80;11.63;;;;;;;2.23;84.13;98661.81;5016086;28;20025;-63
2021/05/07 03:12:39;;;;;;;17.23;12.27;;;;;;;2.29;84.03;98668.94;5016534;28;20065;-63
2021/05/07 03:15:06;;;;;;;15.30;11.52;;;;;;;2.20;84.08;98671.97;5016145;28;20527;-63
2021/05/07 03:17:32;;;;;;;17.40;12.23;;;;;;;2.19;84.22;98673.81;4998833;28;20026;-63
2021/05/07 03:19:57;;;;;;;16.80;11.60;;;;;;;2.20;83.44;98672.81;5016303;28;20030;-63
2021/05/07 03:22:23;;;;;;;17.80;12.18;;;;;;;2.16;83.90;98682.16;4998379;28;20044;-63
2021/05/07 03:24:48;;;;;;;18.67;12.13;;;;;;;2.12;83.76;98680.91;5016131;28;20029;-63
2021/05/07 03:27:14;;;;;;;17.88;12.98;;;;;;;2.01;83.96;98684.16;5014648;28;20034;-63
2021/05/07 03:29:39;;;;;;;19.05;12.57;;;;;;;1.98;84.07;98697.78;5015182;28;20041;-63
2021/05/07 03:32:05;;;;;;;18.27;13.07;;;;;;;1.89;84.00;98695.31;5015745;28;20049;-63
2021/05/07 03:34:31;;;;;;;17.65;12.63;;;;;;;2.00;83.58;98693.09;5016162;28;20030;-63
2021/05/07 03:36:57;;;;;;;19.58;13.18;;;;;;;1.89;83.86;98700.59;5015780;28;20065;-63
2021/05/07 03:39:22;;;;;;;19.92;12.93;;;;;;;1.91;83.91;98700.41;5015949;28;20029;-63
2021/05/07 03:41:47;;;;;;;17.45;12.25;;;;;;;1.83;84.34;98709.31;5015451;28;20034;-62
2021/05/07 03:44:13;;;;;;;18.80;12.00;;;;;;;2.00;84.03;98711.59;5015801;28;20037;-64
2021/05/07 03:46:38;;;;;;;18.88;14.02;;;;;;;1.80;83.96;98715.00;5015540;28;20045;-64
2021/05/07 03:49:04;;;;;;;18.10;13.25;;;;;;;1.81;84.01;98721.91;5015908;28;20034;-63
2021/05/07 03:51:29;;;;;;;19.55;13.70;;;;;;;1.83;84.66;98725.19;5015586;28;20444;-64
2021/05/07 03:53:55;;;;;;;18.95;13.02;;;;;;;1.85;84.07;98728.44;4998107;28;20057;-64
2021/05/07 03:56:20;;;;;;;20.67;14.18;;;;;;;1.83;84.30;98735.75;5015175;28;20042;-64
2021/05/07 03:58:46;;;;;;;17.02;11.57;;;;;;;1.82;84.05;98728.84;5015701;28;20123;-64
2021/05/07 04:01:11;;;;;;;20.40;13.07;;;;;;;1.78;83.83;98737.38;5015461;28;20409;-63
2021/05/07 04:03:37;;;;;;;19.33;12.75;;;;;;;1.70;83.80;98733.06;4998138;28;20499;-66
2021/05/07 04:06:03;;;;;;;19.05;13.35;;;;;;;1.57;83.82;98741.72;5015314;28;20519;-64
2021/05/07 04:08:32;;;;;;;19.10;13.20;;;;;;;1.52;84.20;98744.13;5015370;28;20050;-64
2021/05/07 04:11:04;;;;;;;17.83;13.38;;;;;;;1.53;84.49;98748.44;5015270;28;20034;-64
2021/05/07 04:15:56;;;;;;;19.30;13.77;;;;;;;1.61;84.25;98752.72;4997536;28;20050;-63
2021/05/07 04:18:22;;;;;;;22.20;15.18;;;;;;;1.66;84.65;98758.25;5015525;28;20042;-63
2021/05/07 04:20:47;;;;;;;19.45;14.25;;;;;;;1.82;83.80;98757.06;5014903;28;20559;-63
2021/05/07 04:23:12;;;;;;;23.30;13.88;;;;;;;2.11;82.46;98763.91;5015162;28;20370;-63
2021/05/07 04:25:38;;;;;;;19.40;13.95;;;;;;;3.13;78.40;98762.78;4997351;28;20045;-64
2021/05/07 04:28:04;;;;;;;17.48;12.88;;;;;;;3.78;75.50;98762.81;5015245;28;20029;-65
2021/05/07 04:30:29;;;;;;;15.88;12.18;;;;;;;4.62;71.58;98768.06;5014704;28;20409;-63
2021/05/07 04:32:54;;;;;;;14.90;11.65;;;;;;;5.27;68.63;98767.78;5015133;28;20073;-63
2021/05/07 04:35:20;;;;;;;15.57;11.55;;;;;;;5.89;65.97;98781.00;4997149;28;20061;-63
2021/05/07 04:37:45;;;;;;;13.05;9.77;;;;;;;4.81;69.70;98777.75;4997517;28;20445;-63
2021/05/07 04:40:12;;;;;;;13.93;11.32;;;;;;;5.57;66.76;98784.63;4997245;28;20026;-63
2021/05/07 04:42:38;;;;;;;16.48;10.52;;;;;;;5.54;66.96;98789.56;5015025;28;20049;-63
2021/05/07 04:45:03;;;;;;;13.48;10.10;;;;;;;5.63;66.01;98794.38;4997152;28;20392;-65
2021/05/07 04:47:29;;;;;;;16.30;11.00;;;;;;;6.24;63.94;98798.00;5014940;28;20491;-64
2021/05/07 04:49:54;;;;;;;14.70;10.93;;;;;;;6.42;63.32;98801.66;5013327;28;20408;-64
2021/05/07 04:52:20;;;;;;;13.65;10.35;;;;;;;6.50;63.30;98804.00;5014412;28;20042;-64
2021/05/07 04:54:45;;;;;;;13.82;10.35;;;;;;;6.25;63.72;98807.59;5014962;28;20392;-64
2021/05/07 04:57:11;;;;;;;12.70;10.10;;;;;;;7.32;59.06;98816.69;5014294;28;20111;-63
2021/05/07 04:59:36;;;;;;;14.60;10.60;;;;;;;8.55;56.62;98819.25;5014938;28;20432;-64
2021/05/07 05:02:02;;;;;;;13.80;10.57;;;;;;;9.60;52.71;98825.78;5014325;28;20448;-64
2021/05/07 05:04:27;;;;;;;14.73;10.23;;;;;;;9.53;51.73;98825.16;5013979;28;20030;-64
2021/05/07 05:06:53;;;;;;;15.10;10.48;;;;;;;9.85;51.48;98827.22;5014119;28;20042;-64
2021/05/07 05:09:18;;;;;;;13.05;9.70;;;;;;;9.86;51.95;98824.28;5014444;28;20041;-64
2021/05/07 05:11:43;;;;;;;13.02;10.13;;;;;;;10.35;49.70;98831.59;4996474;28;20041;-64
2021/05/07 05:14:09;;;;;;;14.32;9.73;;;;;;;11.19;48.15;98835.66;5014484;28;20030;-64
2021/05/07 05:16:34;;;;;;;14.00;9.40;;;;;;;11.28;46.85;98847.53;5013973;28;20057;-64
2021/05/07 05:19:00;;;;;;;11.63;9.70;;;;;;;11.35;45.83;98850.78;5014272;28;20030;-64
2021/05/07 05:21:25;;;;;;;12.23;9.68;;;;;;;12.15;44.65;98853.47;4996173;28;20084;-64
2021/05/07 05:23:50;;;;;;;11.20;9.45;;;;;;;11.96;44.38;98855.00;5014200;28;20030;-64
2021/05/07 05:26:16;;;;;;;10.65;9.55;;;;;;;13.06;42.07;98846.75;5013790;28;20030;-64
2021/05/07 05:28:41;;;;;;;11.93;9.85;;;;;;;12.53;41.87;98851.50;5012994;28;20022;-64
2021/05/07 05:31:07;;;;;;;12.85;10.55;;;;;;;11.38;46.66;98863.72;5013764;28;20531;-64
2021/05/07 05:33:32;;;;;;;11.80;9.93;;;;;;;10.61;48.45;98862.19;5014003;28;20022;-64
2021/05/07 05:35:58;;;;;;;11.18;10.00;;;;;;;11.77;46.34;98863.44;5013467;28;20033;-65
2021/05/07 05:38:23;;;;;;;12.27;9.80;;;;;;;11.71;46.82;98863.69;5013971;28;20026;-64
2021/05/07 05:40:49;;;;;;;12.27;10.85;;;;;;;12.54;43.94;98871.09;5013423;28;20098;-64
2021/05/07 05:43:16;;;;;;;11.85;10.30;;;;;;;12.74;43.85;98871.16;4996399;28;20062;-64
2021/05/07 05:45:42;;;;;;;13.65;11.00;;;;;;;11.56;46.38;98872.44;5013544;28;20042;-64
2021/05/07 05:48:08;;;;;;;11.93;10.60;;;;;;;10.98;47.75;98874.88;4996356;28;20032;-64
2021/05/07 05:50:37;;;;;;;11.50;10.18;;;;;;;9.54;51.86;98863.44;4995867;28;20042;-64
2021/05/07 05:53:03;;;;;;;16.15;12.02;;;;;;;12.98;45.19;98876.03;5013901;28;20108;-64
2021/05/07 05:55:29;;;;;;;13.05;10.73;;;;;;;13.69;41.10;98883.38;5013287;28;20503;-64
2021/05/07 05:57:54;;;;;;;12.50;10.25;;;;;;;12.56;44.47;98879.72;5013714;28;20037;-64
2021/05/07 06:00:21;;;;;;;15.52;10.75;;;;;;;12.61;44.02;98887.81;5013067;28;20369;-64
2021/05/07 06:02:46;;;;;;;13.00;10.23;;;;;;;14.77;38.91;98884.66;5013350;28;20022;-64
2021/05/07 06:05:12;;;;;;;14.00;10.55;;;;;;;13.77;40.32;98888.22;5013295;28;20053;-64
2021/05/07 06:07:38;;;;;;;14.05;11.13;;;;;;;13.28;42.66;98886.06;5013468;28;20028;-64
2021/05/07 06:10:04;;;;;;;12.60;11.20;;;;;;;13.48;41.63;98885.25;5013066;28;20029;-64
2021/05/07 06:12:30;;;;;;;12.38;10.73;;;;;;;13.93;40.62;98892.50;5013472;28;20030;-64
2021/05/07 06:14:55;;;;;;;12.43;10.48;;;;;;;14.51;40.04;98896.66;5013438;28;20045;-64
2021/05/07 06:17:20;;;;;;;12.82;11.30;;;;;;;13.66;41.26;98894.69;5012030;28;20057;-64
2021/05/07 06:19:46;;;;;;;12.20;10.13;;;;;;;12.61;43.00;98883.22;5013397;28;20033;-64
2021/05/07 06:22:11;;;;;;;11.25;9.98;;;;;;;11.05;46.63;98877.38;5012902;28;20041;-64
2021/05/07 06:24:37;;;;;;;12.75;10.90;;;;;;;12.79;44.68;98886.50;5013293;28;20021;-65
2021/05/07 06:27:02;;;;;;;11.65;10.15;;;;;;;13.98;41.66;98895.19;5012856;28;20030;-64
2021/05/07 06:29:28;;;;;;;11.57;10.38;;;;;;;13.51;43.00;98887.44;5013371;28;20037;-64
2021/05/07 06:31:53;;;;;;;12.07;10.15;;;;;;;13.00;42.94;98900.81;5012759;28;20049;-64
2021/05/07 06:34:18;;;;;;;11.93;9.63;;;;;;;13.66;41.33;98887.41;5013175;28;20038;-64
2021/05/07 06:36:44;;;;;;;11.95;10.75;;;;;;;12.39;44.91;98888.78;5012888;28;20088;-64
2021/05/07 06:39:09;;;;;;;10.90;9.52;;;;;;;14.16;41.09;98890.28;5013271;28;20022;-64
2021/05/07 06:41:35;;;;;;;11.43;9.88;;;;;;;14.74;39.65;98887.91;5012679;28;20389;-64
2021/05/07 06:44:00;;;;;;;14.32;10.30;;;;;;;15.50;36.83;98892.00;5012752;28;20026;-64
2021/05/07 06:46:26;;;;;;;14.02;9.48;;;;;;;14.89;37.24;98882.44;5012722;28;20492;-64
2021/05/07 06:48:51;;;;;;;11.50;9.45;;;;;;;15.85;36.24;98889.28;5013101;28;20473;-64
2021/05/07 06:51:16;;;;;;;13.35;9.43;;;;;;;15.76;36.37;98888.31;5012714;28;20038;-64
2021/05/07 06:53:42;;;;;;;11.90;9.25;;;;;;;16.47;34.66;98887.50;5013058;28;20065;-64
2021/05/07 06:56:09;;;;;;;9.88;8.88;;;;;;;17.91;31.99;98894.34;5012469;28;20033;-64
2021/05/07 06:58:35;;;;;;;11.93;8.98;;;;;;;16.55;35.07;98880.69;5012910;28;20036;-64
2021/05/07 07:01:00;;;;;;;11.10;8.75;;;;;;;17.22;34.21;98891.41;4995228;28;20042;-64
2021/05/07 07:03:26;;;;;;;9.50;8.38;;;;;;;17.57;31.95;98898.16;5012903;28;20043;-65
2021/05/07 07:05:51;;;;;;;10.02;8.65;;;;;;;17.70;32.56;98893.88;5012644;28;20366;-63
2021/05/07 07:08:16;;;;;;;10.00;8.68;;;;;;;14.37;38.70;98889.13;5011764;28;20540;-63
2021/05/07 07:10:42;;;;;;;10.63;9.05;;;;;;;12.62;43.02;98892.09;5011253;28;20100;-63
2021/05/07 07:13:07;;;;;;;12.32;9.30;;;;;;;10.75;48.05;98890.19;5012857;28;20026;-65
2021/05/07 07:15:33;;;;;;;11.77;9.30;;;;;;;10.97;47.52;98898.22;4995005;28;20046;-65
2021/05/07 07:17:58;;;;;;;10.52;8.95;;;;;;;10.06;49.68;98893.38;5012888;28;20030;-64
2021/05/07 07:20:24;;;;;;;10.80;8.68;;;;;;;9.79;51.28;98895.13;5012362;28;20030;-65
2021/05/07 07:22:49;;;;;;;11.82;9.13;;;;;;;9.10;52.86;98896.16;5012779;28;20068;-65
2021/05/07 07:25:14;;;;;;;11.57;9.35;;;;;;;8.96;52.98;98894.81;5012172;28;20492;-64
2021/05/07 07:27:40;;;;;;;12.85;9.60;;;;;;;9.06;53.83;98903.00;5013729;28;20030;-65
2021/05/07 07:30:06;;;;;;;12.65;10.18;;;;;;;8.91;54.12;98898.22;5016112;28;20014;-63
2021/05/07 07:32:31;;;;;;;13.25;10.00;;;;;;;8.82;55.30;98907.66;4998751;28;20022;-63
2021/05/07 07:35:01;;;;;;;13.25;10.13;;;;;;;8.70;55.63;98902.38;5016577;28;20025;-63
2021/05/07 07:37:27;;;;;;;12.15;9.40;;;;;;;7.60;56.77;98901.34;5016041;28;20532;-63
2021/05/07 07:39:52;;;;;;;13.85;9.40;;;;;;;8.30;54.74;98902.34;5016280;28;20033;-63
2021/05/07 07:42:18;;;;;;;14.00;10.38;;;;;;;8.54;55.49;98903.13;4998036;28;20057;-64
2021/05/07 07:44:43;;;;;;;14.57;10.73;;;;;;;7.78;57.56;98893.22;5016052;28;20097;-63
2021/05/07 07:47:09;;;;;;;16.27;10.50;;;;;;;8.16;56.27;98912.44;5015547;28;20046;-64
2021/05/07 07:49:34;;;;;;;15.13;10.57;;;;;;;8.38;56.69;98904.63;5016169;28;20608;-64
2021/05/07 07:52:00;;;;;;;14.88;10.27;;;;;;;8.27;55.97;98908.97;4997864;28;20042;-63
2021/05/07 07:54:25;;;;;;;14.13;9.40;;;;;;;7.88;55.85;98913.97;5015916;28;20029;-64
2021/05/07 07:56:51;;;;;;;15.65;10.18;;;;;;;8.45;56.28;98912.56;5015300;28;20040;-64
2021/05/07 07:59:16;;;;;;;13.02;8.55;;;;;;;7.65;57.55;98906.78;5015712;28;20021;-63
2021/05/07 08:01:42;;;;;;;13.23;10.30;;;;;;;7.83;57.19;98903.19;5015251;28;20030;-63
2021/05/07 08:04:08;;;;;;;14.02;10.30;;;;;;;7.94;57.71;98905.06;5015716;28;20026;-63
2021/05/07 08:06:34;;;;;;;12.60;10.30;;;;;;;8.75;55.26;98894.44;4997810;28;20481;-64
2021/05/07 08:08:59;;;;;;;11.05;7.20;;;;;;;9.49;50.94;98905.09;5015523;28;20038;-63
2021/05/07 08:11:25;;;;;;;11.07;8.38;;;;;;;9.13;49.90;98906.34;5015309;28;20470;-64
2021/05/07 08:13:50;;;;;;;14.70;9.48;;;;;;;8.43;54.31;98918.94;5015415;28;20526;-63
2021/05/07 08:16:16;;;;;;;14.07;10.10;;;;;;;8.10;57.65;98935.56;5015008;28;20045;-63
2021/05/07 08:18:41;;;;;;;13.93;9.85;;;;;;;7.22;62.56;98968.38;5015706;28;20029;-63
2021/05/07 08:21:07;;;;;;;9.25;5.40;;;;;;;5.18;72.83;98985.91;5015099;28;20507;-63
2021/05/07 08:23:33;;;;;;;8.82;6.30;;;;;;;4.70;77.33;98996.16;5015441;28;20473;-63
2021/05/07 08:25:58;;;;;;;8.05;5.88;;;;;;;4.46;77.99;99000.28;5014908;28;20400;-63
2021/05/07 08:28:24;;;;;;;7.93;6.03;;;;;;;4.41;77.56;98998.25;5015250;28;20083;-64
2021/05/07 08:30:49;;;;;;;7.57;5.55;;;;;;;4.33;77.59;99006.44;5014885;28;20072;-64
2021/05/07 08:33:14;;;;;;;6.00;4.70;;;;;;;4.51;77.53;99014.56;4997656;28;20117;-64
2021/05/07 08:35:40;;;;;;;6.97;5.28;;;;;;;4.83;77.18;99016.53;5014872;28;20042;-64
2021/05/07 08:38:05;;;;;;;8.68;5.45;;;;;;;5.40;75.53;99018.28;5015168;28;20412;-64
2021/05/07 08:40:31;;;;;;;8.30;5.55;;;;;;;7.65;67.48;99034.81;4996162;28;20562;-64
2021/05/07 08:42:56;;;;;;;7.65;5.63;;;;;;;8.85;63.80;99038.16;5015016;28;20037;-64
2021/05/07 08:45:22;;;;;;;6.63;4.65;;;;;;;9.76;59.87;99032.09;5014363;28;20485;-64
2021/05/07 08:47:53;;;;;;;7.10;5.28;;;;;;;9.54;61.87;99046.19;5014866;28;20033;-66
2021/05/07 08:50:19;;;;;;;6.45;4.72;;;;;;;9.61;60.77;99048.69;5014015;28;20112;-64
2021/05/07 08:52:44;;;;;;;7.43;4.80;;;;;;;9.71;60.84;99036.31;5014882;28;20077;-64
2021/05/07 08:55:10;;;;;;;6.70;4.75;;;;;;;8.81;62.47;99048.50;5014657;28;20026;-65
2021/05/07 08:57:36;;;;;;;6.45;4.78;;;;;;;8.24;64.93;99053.63;5013700;28;20041;-65
2021/05/07 09:00:02;;;;;;;6.70;5.10;;;;;;;7.33;66.29;99052.91;5014266;28;20357;-65
2021/05/07 09:02:29;;;;;;;7.43;5.28;;;;;;;7.03;67.45;99059.03;5014929;28;20033;-65
2021/05/07 09:04:56;;;;;;;6.63;5.15;;;;;;;6.84;65.86;99065.38;5014841;28;20022;-63
2021/05/07 09:07:22;;;;;;;6.72;5.20;;;;;;;6.74;66.96;99070.41;5014267;28;20404;-63
2021/05/07 09:09:52;;;;;;;7.88;4.82;;;;;;;6.41;65.98;99071.56;5014408;28;20042;-66
2021/05/07 09:12:36;;;;;;;7.80;5.40;;;;;;;6.31;68.22;99069.41;4997008;28;20087;-64
2021/05/07 09:15:01;;;;;;;7.22;4.80;;;;;;;6.51;68.06;99082.53;5013967;28;20026;-63
2021/05/07 09:17:28;;;;;;;7.70;5.10;;;;;;;6.37;65.79;99081.84;5014655;28;20064;-65
2021/05/07 09:20:13;;;;;;;6.10;4.57;;;;;;;6.52;67.17;99086.03;4996978;28;20037;-63
2021/05/07 09:22:39;;;;;;;7.30;4.63;;;;;;;6.43;67.27;99093.47;5013920;28;20041;-63
2021/05/07 09:25:08;;;;;;;6.00;4.30;;;;;;;6.41;66.55;99095.53;5013616;28;20473;-63
2021/05/07 09:27:34;;;;;;;5.88;4.18;;;;;;;6.34;64.31;99102.75;5014411;28;20152;-63
2021/05/07 09:29:59;;;;;;;6.75;4.20;;;;;;;6.05;65.23;99103.19;5014137;28;20113;-63
2021/05/07 09:32:32;;;;;;;5.88;4.53;;;;;;;6.12;65.34;99111.13;4996279;28;20038;-63
2021/05/07 09:35:08;;;;;;;7.63;5.38;;;;;;;6.31;63.86;99111.16;5014114;28;20117;-63
2021/05/07 09:37:33;;;;;;;7.57;5.18;;;;;;;6.47;64.67;99131.94;5013688;28;20076;-64
2021/05/07 09:40:09;;;;;;;7.28;4.90;;;;;;;6.60;63.80;99131.81;5014245;28;20033;-65
2021/05/07 09:42:35;;;;;;;8.60;4.80;;;;;;;6.41;63.27;99124.81;5013749;28;20397;-64
2021/05/07 09:45:03;;;;;;;5.72;4.85;;;;;;;6.35;64.02;99136.34;5013472;28;20461;-63
2021/05/07 09:47:30;;;;;;;7.07;4.90;;;;;;;6.29;65.12;99138.03;5013861;28;20037;-63
2021/05/07 09:50:06;;;;;;;6.05;4.72;;;;;;;6.09;64.86;99151.47;5013793;28;20030;-64
2021/05/07 09:52:31;;;;;;;8.65;6.18;;;;;;;6.02;65.49;99150.69;5012237;28;20054;-63
2021/05/07 09:54:56;;;;;;;8.65;5.88;;;;;;;6.17;65.38;99151.22;5013758;28;20036;-63
2021/05/07 09:57:22;;;;;;;9.20;5.57;;;;;;;6.24;65.51;99164.44;5012117;28;20042;-63
2021/05/07 09:59:48;;;;;;;6.70;5.85;;;;;;;5.86;64.27;99161.81;4996233;28;20349;-63
2021/05/07 10:02:13;;;;;;;7.85;5.88;;;;;;;5.85;65.57;99174.28;4995099;28;20046;-63
2021/05/07 10:04:39;;;;;;;9.98;5.75;;;;;;;5.93;64.43;99173.22;5013478;28;20034;-63
2021/05/07 10:07:06;;;;;;;8.48;6.18;;;;;;;6.05;65.32;99180.34;4995543;28;20100;-63
2021/05/07 10:09:32;;;;;;;7.07;5.65;;;;;;;6.21;64.93;99184.31;5013344;28;20045;-63
2021/05/07 10:11:58;;;;;;;6.88;6.00;;;;;;;6.26;63.71;99197.00;4979346;28;20440;-63
2021/05/07 10:14:24;;;;;;;6.97;5.78;;;;;;;6.20;64.87;99206.66;4995996;28;20060;-63
2021/05/07 10:16:49;;;;;;;7.60;6.20;;;;;;;6.21;65.29;99210.94;4979376;28;20058;-63
2021/05/07 10:19:14;;;;;;;8.73;5.82;;;;;;;6.32;65.10;99217.44;5013305;28;20400;-63
2021/05/07 10:21:44;;;;;;;8.10;6.18;;;;;;;6.28;65.34;99218.09;5013040;28;20515;-63
2021/05/07 10:24:17;;;;;;;7.77;6.50;;;;;;;6.12;66.32;99233.53;5013222;28;20468;-62
2021/05/07 10:26:52;;;;;;;10.55;6.65;;;;;;;5.78;67.60;99234.69;5012819;28;20124;-63
2021/05/07 10:29:21;;;;;;;8.77;6.95;;;;;;;5.83;68.25;99246.31;5013378;28;20041;-62
2021/05/07 10:31:56;;;;;;;10.50;7.35;;;;;;;5.82;68.80;99252.66;5012675;28;20042;-62
2021/05/07 10:34:22;;;;;;;10.50;7.88;;;;;;;5.86;68.12;99261.03;5013418;28;20037;-62
2021/05/07 10:36:52;;;;;;;9.35;7.25;;;;;;;5.94;68.35;99273.31;5012828;28;20503;-62
2021/05/07 10:39:26;;;;;;;9.13;8.02;;;;;;;6.24;67.50;99290.38;4995522;28;20022;-62
2021/05/07 10:41:52;;;;;;;8.90;7.20;;;;;;;6.24;65.34;99297.53;5012214;28;20038;-63
2021/05/07 10:44:18;;;;;;;6.25;5.35;;;;;;;7.12;62.62;99300.22;5013023;28;20385;-63
2021/05/07 10:46:44;;;;;;;10.13;6.07;;;;;;;6.78;62.48;99306.03;5012614;28;20030;-63
2021/05/07 10:49:09;;;;;;;7.97;6.43;;;;;;;6.22;63.25;99310.25;5013146;28;20025;-63
2021/05/07 10:51:35;;;;;;;8.00;6.60;;;;;;;6.16;64.54;99311.09;5011309;28;20057;-62
2021/05/07 10:54:08;;;;;;;6.72;5.97;;;;;;;5.69;64.94;99321.88;5011952;28;20210;-62
2021/05/07 10:56:35;;;;;;;8.02;6.35;;;;;;;5.79;65.52;99324.91;5012399;28;20057;-62
2021/05/07 10:59:10;;;;;;;6.03;5.20;;;;;;;5.76;65.40;99329.81;5013260;28;20050;-62
2021/05/07 11:01:36;;;;;;;7.38;5.82;;;;;;;6.12;64.97;99339.97;5012720;28;20440;-62
2021/05/07 11:04:05;;;;;;;6.85;5.82;;;;;;;5.99;65.01;99355.97;4982085;28;20034;-62
2021/05/07 11:06:45;;;;;;;6.57;5.38;;;;;;;6.21;63.15;99352.00;5015213;28;20282;-62
2021/05/07 11:09:22;;;;;;;5.97;5.10;;;;;;;6.54;62.61;99359.03;5016517;28;20058;-63
2021/05/07 11:11:54;;;;;;;6.63;5.00;;;;;;;7.18;58.91;99353.72;5016040;28;20042;-63
2021/05/07 11:14:21;;;;;;;5.38;4.57;;;;;;;8.48;56.88;99364.28;5016527;28;20105;-62
2021/05/07 11:16:47;;;;;;;6.20;5.00;;;;;;;8.60;55.99;99357.16;4998512;28;20030;-63
2021/05/07 11:19:23;;;;;;;6.50;5.13;;;;;;;8.88;56.01;99363.75;5016527;28;20532;-65
2021/05/07 11:21:53;;;;;;;4.78;3.90;;;;;;;8.97;52.64;99366.94;5016003;28;20071;-65
2021/05/07 11:24:21;;;;;;;5.10;4.60;;;;;;;9.41;53.11;99367.44;5015218;28;20034;-64
2021/05/07 11:26:47;;;;;;;6.78;4.78;;;;;;;9.06;54.71;99361.03;5015911;28;20034;-65